Time;durP1;ratioP1;P1;durP2;ratioP2;P2;SDS_P1;SDS_P2;PMS_P1;PMS_P2;Temp;Humidity;BMP_temperature;BMP_pressure;BME280_temperature;BME280_humidity;BME280_pressure;Samples;Min_cycle;Max_cycle;Signal;HPM_P1;HPM_P2
2023/10/04 00:03:28;;;;;;;239.10;219.70;;;;;;;13.50;100.00;100679.95;223626;1263;141902;-83
2023/10/04 00:09:29;;;;;;;246.40;225.30;;;;;;;13.43;100.00;100691.15;224157;1265;112969;-83
2023/10/04 00:27:32;;;;;;;163.50;151.40;;;;;;;13.16;100.00;100715.76;224354;1263;111207;-85
2023/10/04 00:33:35;;;;;;;144.70;134.00;;;;;;;13.12;100.00;100731.83;223716;1263;142919;-85
2023/10/04 00:39:36;;;;;;;185.70;172.10;;;;;;;13.06;100.00;100756.89;224137;1263;139207;-89
2023/10/04 00:45:36;;;;;;;154.30;142.80;;;;;;;13.00;100.00;100778.34;224226;1263;139162;-87
2023/10/04 00:51:37;;;;;;;139.00;128.90;;;;;;;12.95;100.00;100786.10;223686;1263;140357;-86
2023/10/04 00:57:39;;;;;;;136.60;125.40;;;;;;;12.89;100.00;100791.26;224379;1266;105278;-88
2023/10/04 01:03:40;;;;;;;141.70;130.30;;;;;;;12.87;100.00;100799.77;223571;1263;140596;-87
2023/10/04 01:21:56;;;;;;;46.40;42.60;;;;;;;12.86;100.00;100814.12;223699;1263;140877;-87
2023/10/04 01:27:56;;;;;;;151.50;139.10;;;;;;;12.87;100.00;100825.50;224327;1263;105184;-87
2023/10/04 01:40:00;;;;;;;71.30;65.90;;;;;;;12.87;100.00;100824.39;224217;1263;139593;-84
2023/10/04 01:46:00;;;;;;;39.30;36.00;;;;;;;12.84;100.00;100831.45;224349;1263;105366;-83
2023/10/04 01:52:02;;;;;;;46.80;42.10;;;;;;;12.80;100.00;100834.43;223794;1263;141088;-86
2023/10/04 02:10:11;;;;;;;20.70;11.60;;;;;;;12.62;100.00;100840.10;224295;1263;138753;-84
2023/10/04 02:16:28;;;;;;;32.30;27.20;;;;;;;12.55;100.00;100840.04;224354;1263;105529;-86
2023/10/04 02:28:18;;;;;;;14.40;12.00;;;;;;;12.48;100.00;100860.09;224243;1263;139307;-83
2023/10/04 02:34:19;;;;;;;16.90;12.90;;;;;;;12.45;100.00;100866.05;223596;1263;140448;-85
2023/10/04 02:40:16;;;;;;;16.50;14.70;;;;;;;12.43;100.00;100869.19;223809;1263;140415;-87
2023/10/04 02:46:20;;;;;;;32.10;28.10;;;;;;;12.41;100.00;100869.47;224336;1264;107090;-87
2023/10/04 03:04:20;;;;;;;15.90;11.10;;;;;;;12.42;100.00;100885.96;223691;1263;140402;-86
2023/10/04 03:10:49;;;;;;;13.50;10.10;;;;;;;12.41;100.00;100890.55;223694;1263;142527;-86
2023/10/04 03:16:23;;;;;;;16.90;10.30;;;;;;;12.40;100.00;100893.84;224152;1267;95914;-85
2023/10/04 03:22:24;;;;;;;16.40;8.30;;;;;;;12.38;100.00;100895.63;223759;1263;141189;-87
2023/10/04 03:28:26;;;;;;;14.30;8.70;;;;;;;12.35;100.00;100907.42;224270;1263;139456;-87
2023/10/04 03:34:26;;;;;;;12.70;5.80;;;;;;;12.29;100.00;100912.09;223668;1263;140168;-89
2023/10/04 03:52:39;;;;;;;12.40;5.00;;;;;;;12.17;100.00;100928.65;223578;1267;140078;-86
2023/10/04 03:58:40;;;;;;;14.50;9.50;;;;;;;12.13;100.00;100928.27;224265;1267;95720;-84
2023/10/04 04:10:43;;;;;;;13.40;5.80;;;;;;;12.03;100.00;100921.85;223499;1267;140961;-85
2023/10/04 04:16:44;;;;;;;10.00;4.60;;;;;;;11.98;100.00;100927.37;224098;1263;138808;-86
2023/10/04 04:23:10;;;;;;;8.10;3.90;;;;;;;11.94;100.00;100929.14;223725;1267;140537;-85
2023/10/04 04:28:47;;;;;;;11.20;3.80;;;;;;;11.88;100.00;100930.71;224199;1267;138465;-85
2023/10/04 04:34:47;;;;;;;11.80;3.80;;;;;;;11.84;100.00;100939.72;223669;1266;140109;-87
2023/10/04 04:40:49;;;;;;;11.30;4.60;;;;;;;11.82;100.00;100937.40;223745;1263;223219;-85
2023/10/04 04:46:52;;;;;;;12.60;4.60;;;;;;;11.81;100.00;100934.73;224226;1264;95901;-87
2023/10/04 04:52:54;;;;;;;20.00;10.60;;;;;;;11.81;100.00;100942.42;223812;1263;140302;-86
2023/10/04 04:59:22;;;;;;;26.50;15.30;;;;;;;11.80;100.00;100945.80;224141;1263;139323;-86
2023/10/04 05:10:55;;;;;;;;;;;;;;;;;;;;;
2023/10/04 05:16:50;;;;;;;10.30;4.40;;;;;;;11.76;100.00;100962.13;224282;1267;109193;-85
2023/10/04 05:22:33;;;;;;;;;;;;;;;;;;;;;
2023/10/04 05:28:35;;;;;;;13.30;7.10;;;;;;;11.83;100.00;100972.56;224158;1269;138962;-88
2023/10/04 05:34:36;;;;;;;13.20;6.30;;;;;;;11.87;100.00;100979.25;223545;1267;140065;-86
2023/10/04 05:40:38;;;;;;;14.00;7.80;;;;;;;11.93;100.00;100987.30;223554;1265;140311;-86
2023/10/04 05:46:44;;;;;;;13.70;6.50;;;;;;;11.99;100.00;100996.29;224156;1267;138753;-87
2023/10/04 05:52:39;;;;;;;;;;;;;;;;;;;;;
2023/10/04 05:58:38;;;;;;;;;;;;;;;;;;;;;
2023/10/04 06:10:40;;;;;;;;;;;;;;;;;;;;;
2023/10/04 06:16:43;;;;;;;12.70;8.30;;;;;;;12.38;100.00;101022.99;224061;1267;139313;-89
2023/10/04 06:22:44;;;;;;;10.10;5.50;;;;;;;12.47;100.00;101025.34;223627;1267;140289;-92
2023/10/04 06:28:46;;;;;;;14.60;7.40;;;;;;;12.58;100.00;101028.08;224155;1264;138791;-89
2023/10/04 06:34:37;;;;;;;17.10;7.60;;;;;;;12.68;100.00;101026.70;223572;1267;141357;-91
2023/10/04 06:40:36;;;;;;;22.90;18.50;;;;;;;12.78;100.00;101030.67;223627;1264;140186;-86
2023/10/04 06:46:30;;;;;;;;;;;;;;;;;;;;;
2023/10/04 06:52:31;;;;;;;;;;;;;;;;;;;;;
2023/10/04 06:58:31;;;;;;;;;;;;;;;;;;;;;
2023/10/04 07:04:33;;;;;;;13.20;9.60;;;;;;;13.00;100.00;101057.64;223629;1267;140144;-89
2023/10/04 07:10:37;;;;;;;12.60;8.10;;;;;;;13.07;100.00;101061.12;223569;1264;140502;-89
2023/10/04 07:16:06;;;;;;;;;;;;;;;;;;;;;
2023/10/04 07:21:57;;;;;;;;;;;;;;;;;;;;;
2023/10/04 07:27:52;;;;;;;;;;;;;;;;;;;;;
2023/10/04 07:33:46;;;;;;;14.50;6.80;;;;;;;13.39;100.00;101080.42;223550;1264;140580;-86
2023/10/04 07:39:37;;;;;;;15.00;9.60;;;;;;;13.47;100.00;101089.10;224180;1264;138846;-88
2023/10/04 07:45:38;;;;;;;17.40;12.90;;;;;;;13.54;100.00;101094.63;224232;1264;139047;-92
2023/10/04 07:51:41;;;;;;;13.20;6.90;;;;;;;13.56;100.00;101107.11;223695;1264;140520;-90
2023/10/04 07:57:36;;;;;;;9.30;5.30;;;;;;;13.55;100.00;101118.11;224221;1263;139132;-86
2023/10/04 08:03:35;;;;;;;13.50;5.50;;;;;;;13.55;100.00;101128.45;223684;1263;140051;-87
2023/10/04 08:09:29;;;;;;;;;;;;;;;;;;;;;
2023/10/04 08:15:53;;;;;;;10.20;4.40;;;;;;;13.56;100.00;101145.36;224061;1264;223724;-89
2023/10/04 08:21:37;;;;;;;11.70;4.50;;;;;;;13.55;100.00;101148.92;223617;1263;140188;-90
2023/10/04 08:33:39;;;;;;;10.40;4.80;;;;;;;13.53;100.00;101157.75;219645;1263;5352697;-88
2023/10/04 08:39:41;;;;;;;11.60;4.90;;;;;;;13.59;100.00;101164.52;224270;1264;138934;-87
2023/10/04 08:45:29;;;;;;;;;;;;;;;;;;;;;
2023/10/04 08:51:33;;;;;;;8.60;4.50;;;;;;;13.69;100.00;101165.59;223667;1264;140527;-88
2023/10/04 08:57:35;;;;;;;14.40;4.40;;;;;;;13.77;100.00;101160.45;224184;1263;138721;-89
2023/10/04 09:03:35;;;;;;;10.00;4.00;;;;;;;13.89;100.00;101165.79;223642;1264;139735;-88
2023/10/04 09:09:18;;;;;;;23.70;5.30;;;;;;;14.04;100.00;101169.00;224073;1267;138731;-90
2023/10/04 09:15:18;;;;;;;;;;;;;;;;;;;;;
2023/10/04 09:21:20;;;;;;;11.70;4.30;;;;;;;14.29;100.00;101159.98;223542;1264;140508;-89
2023/10/04 09:27:19;;;;;;;;;;;;;;;;;;;;;
2023/10/04 09:33:19;;;;;;;12.30;4.20;;;;;;;14.70;100.00;101168.66;223507;1263;140342;-89
2023/10/04 09:39:23;;;;;;;14.70;3.90;;;;;;;14.82;100.00;101165.09;224075;1263;138841;-87
2023/10/04 09:45:24;;;;;;;11.20;3.80;;;;;;;14.88;100.00;101174.08;224168;1263;139368;-89
2023/10/04 09:51:46;;;;;;;9.70;4.40;;;;;;;14.97;100.00;101177.91;223658;1263;140279;-92
2023/10/04 09:57:31;;;;;;;9.60;3.80;;;;;;;15.09;99.67;101172.99;224264;1263;138853;-88
2023/10/04 10:03:32;;;;;;;13.00;3.60;;;;;;;15.15;98.67;101179.91;223700;1263;139843;-88
2023/10/04 10:09:31;;;;;;;;;;;;;;;;;;;;;
2023/10/04 10:15:58;;;;;;;12.70;2.90;;;;;;;15.26;98.28;101182.96;224055;1263;390814;-87
2023/10/04 10:21:16;;;;;;;14.80;5.40;;;;;;;15.38;97.71;101187.33;223747;1264;140256;-91
2023/10/04 10:27:18;;;;;;;11.00;2.70;;;;;;;15.48;96.70;101189.90;224305;1263;138853;-88
2023/10/04 10:33:12;;;;;;;;;;;;;;;;;;;;;
2023/10/04 10:39:28;;;;;;;;;;;;;;;;;;;;;
2023/10/04 10:45:30;;;;;;;9.80;3.00;;;;;;;15.57;96.14;101198.40;224305;1263;138814;-87
2023/10/04 10:51:34;;;;;;;11.60;7.10;;;;;;;15.65;95.96;101205.58;223712;1263;139946;-88
2023/10/04 10:57:36;;;;;;;9.20;2.70;;;;;;;15.71;95.21;101204.06;224299;1263;138860;-87
2023/10/04 11:03:36;;;;;;;8.20;2.80;;;;;;;15.89;94.69;101202.27;223660;1263;140005;-91
2023/10/04 11:09:59;;;;;;;7.90;3.50;;;;;;;16.03;93.08;101200.57;224223;1263;138480;-88
2023/10/04 11:15:43;;;;;;;14.00;3.20;;;;;;;16.21;92.51;101208.52;224169;1263;242736;-89
2023/10/04 11:21:31;;;;;;;8.00;3.10;;;;;;;16.32;91.50;101203.77;223713;1263;140293;-90
2023/10/04 11:27:33;;;;;;;12.70;3.40;;;;;;;16.42;90.76;101196.40;224238;1263;138664;-89
2023/10/04 11:33:24;;;;;;;9.90;2.80;;;;;;;16.54;89.50;101200.05;223800;1263;139820;-87
2023/10/04 11:39:33;;;;;;;10.00;3.00;;;;;;;16.61;89.22;101196.95;224211;1263;138520;-88
2023/10/04 11:45:27;;;;;;;8.90;3.00;;;;;;;16.68;88.43;101188.05;224058;1267;364854;-89
2023/10/04 11:51:29;;;;;;;14.10;2.80;;;;;;;16.83;87.70;101183.33;223951;1263;140288;-90
2023/10/04 11:57:29;;;;;;;;;;;;;;;;;;;;;
2023/10/04 12:03:32;;;;;;;10.50;3.50;;;;;;;17.01;86.70;101180.73;223816;1263;140045;-87
2023/10/04 12:09:34;;;;;;;12.90;3.60;;;;;;;17.20;86.35;101189.80;224379;1263;138738;-88
2023/10/04 12:15:31;;;;;;;;;;;;;;;;;;;;;
2023/10/04 12:21:35;;;;;;;9.20;3.40;;;;;;;17.24;83.37;101192.33;223790;1263;139829;-89
2023/10/04 12:27:35;;;;;;;10.50;3.30;;;;;;;17.26;84.45;101186.45;224239;1263;138516;-89
2023/10/04 12:33:14;;;;;;;8.90;3.00;;;;;;;17.31;82.90;101192.55;223715;1263;140094;-88
2023/10/04 12:39:04;;;;;;;;;;;;;;;;;;;;;
2023/10/04 12:51:08;;;;;;;10.40;3.20;;;;;;;17.13;82.09;101177.99;223748;1263;140994;-88
2023/10/04 12:57:11;;;;;;;13.80;3.10;;;;;;;17.12;83.02;101173.70;224305;1263;138701;-88
2023/10/04 13:03:11;;;;;;;12.50;3.70;;;;;;;17.16;82.48;101176.06;223781;1263;140163;-90
2023/10/04 13:09:19;;;;;;;10.10;3.40;;;;;;;17.15;81.68;101180.60;224338;1263;138905;-89
2023/10/04 13:21:13;;;;;;;12.40;3.40;;;;;;;17.06;80.26;101176.91;223744;1265;140006;-88
2023/10/04 13:27:14;;;;;;;10.00;3.40;;;;;;;17.14;80.47;101179.27;224276;1263;138904;-90
2023/10/04 13:33:08;;;;;;;;;;;;;;;;;;;;;
2023/10/04 13:39:10;;;;;;;11.80;3.10;;;;;;;17.29;80.18;101187.77;224347;1263;139337;-89
2023/10/04 13:45:05;;;;;;;;;;;;;;;;;;;;;
2023/10/04 13:50:59;;;;;;;;;;;;;;;;;;;;;
2023/10/04 13:56:58;;;;;;;;;;;;;;;;;;;;;
2023/10/04 14:08:41;;;;;;;;;;;;;;;;;;;;;
2023/10/04 14:14:33;;;;;;;;;;;;;;;;;;;;;
2023/10/04 14:20:43;;;;;;;8.70;3.10;;;;;;;17.11;80.52;101205.34;223682;1263;139814;-87
2023/10/04 14:26:44;;;;;;;15.70;3.50;;;;;;;17.02;80.58;101206.64;224302;1263;139285;-88
2023/10/04 14:32:47;;;;;;;7.40;2.80;;;;;;;16.98;81.50;101211.09;223748;1263;140705;-87
2023/10/04 14:38:45;;;;;;;10.60;3.00;;;;;;;16.92;81.13;101209.36;224252;1263;138728;-89
2023/10/04 14:44:34;;;;;;;11.60;3.10;;;;;;;16.84;80.20;101207.95;223727;1263;140000;-86
2023/10/04 14:50:39;;;;;;;8.50;3.00;;;;;;;16.77;80.04;101196.05;223764;1263;141223;-89
2023/10/04 14:56:41;;;;;;;8.60;2.50;;;;;;;16.73;80.75;101195.57;224168;1263;138627;-89
2023/10/04 15:02:40;;;;;;;10.70;3.50;;;;;;;16.67;81.50;101202.49;223403;1266;140703;-87
2023/10/04 15:08:23;;;;;;;;;;;;;;;;;;;;;
2023/10/04 15:14:28;;;;;;;13.30;3.50;;;;;;;16.59;82.89;101200.67;223664;1263;139914;-88
2023/10/04 15:20:16;;;;;;;11.60;3.70;;;;;;;16.53;83.81;101214.73;223670;1263;140192;-89
2023/10/04 15:26:20;;;;;;;10.40;3.40;;;;;;;16.41;85.53;101228.95;224100;1263;138808;-88
2023/10/04 15:32:20;;;;;;;9.90;4.90;;;;;;;16.20;88.83;101239.08;223751;1263;141166;-88
2023/10/04 15:38:21;;;;;;;18.10;8.50;;;;;;;15.94;91.12;101239.35;224239;1263;138564;-87
2023/10/04 15:50:23;;;;;;;20.20;18.20;;;;;;;15.37;94.25;101229.31;223691;1265;140218;-87
2023/10/04 15:56:26;;;;;;;25.10;21.30;;;;;;;15.21;95.70;101231.67;224249;1263;139078;-90
2023/10/04 16:02:16;;;;;;;;;;;;;;;;;;;;;
2023/10/04 16:08:18;;;;;;;38.30;35.40;;;;;;;15.04;97.31;101233.89;224280;1263;139646;-89
2023/10/04 16:14:19;;;;;;;49.40;45.80;;;;;;;14.97;98.11;101235.73;223553;1263;139925;-89
2023/10/04 16:20:21;;;;;;;54.60;50.50;;;;;;;14.88;98.66;101235.84;223666;1263;140343;-89
2023/10/04 16:26:13;;;;;;;56.60;52.20;;;;;;;14.77;99.34;101237.73;224239;1263;139024;-87
2023/10/04 16:32:13;;;;;;;63.60;58.70;;;;;;;14.68;99.87;101245.13;223761;1263;140261;-89
2023/10/04 16:38:15;;;;;;;63.60;59.00;;;;;;;14.58;100.00;101241.88;224208;1263;139032;-89
2023/10/04 16:44:16;;;;;;;65.60;60.60;;;;;;;14.48;100.00;101241.17;223663;1266;140322;-89
2023/10/04 16:50:16;;;;;;;;;;;;;;;;;;;;;
2023/10/04 16:56:18;;;;;;;65.20;60.20;;;;;;;14.27;100.00;101248.50;224146;1263;139768;-87
2023/10/04 17:02:01;;;;;;;56.40;52.60;;;;;;;14.18;100.00;101255.84;223603;1263;140567;-87
2023/10/04 17:08:03;;;;;;;47.80;44.10;;;;;;;14.10;100.00;101261.67;224120;1263;139117;-86
2023/10/04 17:14:02;;;;;;;;;;;;;;;;;;;;;
2023/10/04 17:20:05;;;;;;;31.00;27.00;;;;;;;13.87;100.00;101277.48;224210;1263;139282;-88
2023/10/04 17:26:08;;;;;;;36.30;33.20;;;;;;;13.69;100.00;101275.45;224159;1263;139239;-87
2023/10/04 17:32:07;;;;;;;21.80;19.90;;;;;;;13.55;100.00;101276.94;223568;1266;141201;-87
2023/10/04 17:38:00;;;;;;;;;;;;;;;;;;;;;
2023/10/04 17:49:59;;;;;;;18.10;15.90;;;;;;;13.15;100.00;101277.82;224160;1265;139156;-87
2023/10/04 17:55:54;;;;;;;23.40;20.40;;;;;;;13.03;100.00;101272.52;224001;1263;386420;-87
2023/10/04 18:07:45;;;;;;;17.90;14.10;;;;;;;12.81;100.00;101269.38;224142;1263;139482;-87
2023/10/04 18:19:49;;;;;;;12.90;10.90;;;;;;;12.60;100.00;101263.38;224088;1263;139162;-86
2023/10/04 18:31:51;;;;;;;20.40;13.50;;;;;;;12.37;100.00;101271.67;223582;1267;140477;-88
2023/10/04 18:56:00;;;;;;;24.40;18.50;;;;;;;12.10;100.00;101279.93;224098;1263;139579;-89
2023/10/04 19:02:01;;;;;;;24.70;17.00;;;;;;;12.04;100.00;101284.31;223650;1263;140360;-88
2023/10/04 19:14:04;;;;;;;23.10;12.80;;;;;;;11.93;100.00;101280.41;223645;1264;139383;-88
2023/10/04 19:20:05;;;;;;;21.20;16.20;;;;;;;11.90;100.00;101282.77;224179;1263;139154;-88
2023/10/04 19:38:09;;;;;;;18.60;13.00;;;;;;;11.88;100.00;101285.04;224146;1263;139406;-85
2023/10/04 19:44:03;;;;;;;21.10;12.10;;;;;;;11.88;100.00;101287.31;223493;1263;140849;-86
2023/10/04 19:50:05;;;;;;;19.70;12.20;;;;;;;11.86;100.00;101284.91;223983;1267;139462;-86
2023/10/04 19:56:05;;;;;;;22.30;13.60;;;;;;;11.87;100.00;101288.31;224044;1263;139181;-86
2023/10/04 20:02:06;;;;;;;27.40;14.00;;;;;;;11.86;100.00;101287.11;223583;1263;140688;-85
2023/10/04 20:08:07;;;;;;;19.20;11.80;;;;;;;11.86;100.00;101286.57;224228;1263;139422;-86
2023/10/04 20:14:08;;;;;;;20.50;12.90;;;;;;;11.85;100.00;101279.84;223556;1263;140159;-87
2023/10/04 20:20:01;;;;;;;;;;;;;;;;;;;;;
2023/10/04 20:32:04;;;;;;;20.20;10.10;;;;;;;11.88;100.00;101274.24;219586;1263;5381443;-86
2023/10/04 20:50:08;;;;;;;19.60;10.50;;;;;;;11.88;100.00;101264.94;223627;1263;140445;-86
2023/10/04 21:02:17;;;;;;;;;;;;;;;;;;;;;
2023/10/04 21:14:12;;;;;;;;;;;;;;;;;;;;;
2023/10/04 21:20:21;;;;;;;20.00;9.80;;;;;;;11.85;100.00;101250.45;223682;1264;140177;-87
2023/10/04 21:26:22;;;;;;;18.00;9.70;;;;;;;11.82;100.00;101247.10;224208;1264;139157;-86
2023/10/04 21:32:29;;;;;;;15.60;9.30;;;;;;;11.81;100.00;101242.48;223628;1263;140088;-86
2023/10/04 21:38:26;;;;;;;17.20;11.60;;;;;;;11.79;100.00;101245.77;224067;1267;138881;-86
2023/10/04 21:44:49;;;;;;;15.00;8.80;;;;;;;11.76;100.00;101238.55;223591;1266;140181;-86
2023/10/04 21:56:34;;;;;;;19.70;8.90;;;;;;;11.73;100.00;101230.77;224251;1267;139198;-86
2023/10/04 22:02:35;;;;;;;15.80;8.10;;;;;;;11.72;100.00;101221.62;223578;1263;140374;-87
2023/10/04 22:14:40;;;;;;;16.50;9.30;;;;;;;11.70;100.00;101200.52;223611;1263;140060;-86
2023/10/04 22:20:40;;;;;;;18.10;9.60;;;;;;;11.69;100.00;101190.98;223552;1265;140002;-85
2023/10/04 22:26:40;;;;;;;18.40;8.40;;;;;;;11.70;100.00;101189.33;224115;1267;138920;-85
2023/10/04 22:44:43;;;;;;;20.00;11.10;;;;;;;11.72;100.00;101161.48;223625;1265;140366;-87
2023/10/04 22:56:45;;;;;;;20.40;10.80;;;;;;;11.79;100.00;101166.11;224201;1266;139464;-86
2023/10/04 23:02:47;;;;;;;23.40;12.80;;;;;;;11.83;100.00;101162.48;223650;1267;140519;-86
2023/10/04 23:33:07;;;;;;;23.70;11.60;;;;;;;11.88;100.00;101132.77;223692;1268;140588;-86
2023/10/04 23:45:10;;;;;;;16.60;10.30;;;;;;;11.85;100.00;101125.39;223593;1264;140146;-86
2023/10/04 23:51:30;;;;;;;18.10;10.50;;;;;;;11.82;100.00;101116.20;223695;1264;140481;-86
